CDT,Max TemperatureF,Mean TemperatureF,Min TemperatureF,Max Dew PointF,MeanDew PointF,Min DewpointF,Max Humidity, Mean Humidity, Min Humidity, Max Sea Level PressureIn, Mean Sea Level PressureIn, Min Sea Level PressureIn, Max VisibilityMiles, Mean VisibilityMiles, Min VisibilityMiles, Max Wind SpeedMPH, Mean Wind SpeedMPH, Max Gust SpeedMPH,PrecipitationIn, CloudCover, Events, WindDirDegrees
2012-10-1,82,68,57,60,55,47,90,70,32,29.94,29.87,29.83,10,9,7,20,7,26,0.00,0,,346
2012-10-2,77,67,57,51,44,37,72,49,24,30.00,29.93,29.87,10,10,10,18,11,17,0.00,1,,349
2012-10-3,84,68,53,54,50,42,86,55,29,29.92,29.88,29.82,10,10,10,20,8,28,0.00,0,,158
2012-10-4,72,66,61,63,52,45,87,66,54,30.12,30.04,29.89,10,10,10,28,11,36,0.00,5,,49
2012-10-5,62,57,51,48,46,42,72,62,55,30.16,30.10,30.07,10,10,10,17,11,21,0.00,7,,33
2012-10-6,51,48,46,41,31,27,71,50,39,30.31,30.22,30.17,10,10,10,23,17,29,0.00,7,,44
2012-10-7,55,48,43,35,30,26,74,51,34,30.34,30.26,30.19,10,10,9,16,8,,0.01,6,Rain,55
2012-10-8,66,52,37,40,33,29,79,53,28,30.21,30.12,29.97,10,10,10,18,6,25,0.00,0,,192
2012-10-9,82,66,50,53,47,41,86,57,30,29.98,29.87,29.78,10,10,10,20,12,26,0.00,0,,172
2012-10-10,64,60,55,52,47,42,81,63,54,30.20,30.11,29.99,10,10,10,20,13,,0.00,6,,71
2012-10-11,82,71,60,67,59,53,87,75,58,30.11,30.05,29.95,10,10,4,18,5,25,0.00,6,,156
2012-10-12,88,76,66,69,66,64,100,78,49,30.14,30.03,29.96,10,8,2,20,9,17,0.00,3,,146
2012-10-13,87,78,61,70,65,43,84,71,36,29.93,29.81,29.65,10,10,10,32,17,41,0.04,4,Rain-Thunderstorm,185
2012-10-14,84,68,55,46,41,36,67,39,19,30.08,29.99,29.81,10,10,7,23,12,26,0.00,0,,321
2012-10-15,84,68,51,48,44,42,77,53,22,30.10,30.02,29.86,10,5,1,18,6,20,0.00,0,Rain,229
2012-10-16,90,74,59,59,53,46,67,50,30,29.85,29.64,29.48,10,10,10,22,13,26,0.00,0,,184
2012-10-17,82,68,54,59,42,28,73,41,17,29.82,29.58,29.39,10,10,10,26,16,34,0.00,0,,325
2012-10-18,72,60,48,29,24,19,46,30,14,30.03,29.94,29.82,10,10,10,18,10,20,0.00,0,,333
2012-10-19,79,62,45,36,27,19,53,31,12,30.02,29.92,29.81,10,10,9,14,10,18,0.00,0,,263
2012-10-20,88,68,48,54,44,35,70,46,22,29.80,29.69,29.60,10,10,10,15,8,24,0.00,0,,169
2012-10-21,97,81,66,64,60,53,87,55,23,29.72,29.66,29.61,10,10,10,25,14,31,0.00,0,,187
2012-10-22,78,72,64,64,63,61,90,73,58,29.94,29.81,29.71,10,10,8,24,15,38,0.15,2,Rain-Thunderstorm,189
2012-10-23,88,74,61,68,65,60,97,75,49,29.83,29.78,29.72,10,10,7,22,11,30,0.01,0,,183
2012-10-24,86,74,64,67,64,60,97,74,53,29.87,29.75,29.65,10,10,8,23,13,29,0.00,2,,171
2012-10-25,71,60,46,61,46,33,88,61,39,30.19,29.91,29.65,10,10,9,34,18,40,0.00,2,,356
2012-10-26,55,47,37,33,27,22,73,52,29,30.41,30.32,30.19,10,10,10,29,14,34,0.00,0,,12
2012-10-27,57,42,28,26,22,17,75,48,24,30.38,30.29,30.19,10,10,10,9,7,,0.00,0,,26
2012-10-28,63,48,34,28,24,19,61,43,25,30.29,30.23,30.15,10,10,10,10,6,,0.00,0,,101
2012-10-29,70,53,36,31,29,26,68,47,23,30.25,30.16,30.06,10,10,10,14,7,20,0.00,0,,139
2012-10-30,79,60,41,39,35,29,65,45,22,30.05,29.96,29.88,10,10,10,10,5,17,0.00,0,,216
2012-10-31,80,65,51,40,38,36,61,42,22,30.04,29.96,29.91,10,10,10,16,8,,0.00,0,,25